createdAt,value
2023-03-23T16:00:42.673Z,97476.69
2023-03-23T16:05:45.302Z,97486.00
2023-03-23T16:10:47.598Z,97492.69
2023-03-23T16:15:50.226Z,97484.44
2023-03-23T16:20:52.282Z,97475.22
2023-03-23T16:25:54.223Z,97478.06
2023-03-23T16:31:05.007Z,97497.81
2023-03-23T16:36:07.669Z,97511.56
2023-03-23T16:41:09.571Z,97522.72
2023-03-23T16:46:13.575Z,97523.78
2023-03-23T16:51:16.185Z,97528.25
2023-03-23T16:56:18.338Z,97530.69
2023-03-23T17:01:20.630Z,97541.97
2023-03-23T17:06:22.781Z,97530.34
2023-03-23T17:11:24.805Z,97540.63
2023-03-23T17:16:26.699Z,97537.25
2023-03-23T17:21:28.586Z,97551.13
2023-03-23T17:26:31.447Z,97575.47
2023-03-23T17:31:33.661Z,97568.47
2023-03-23T17:36:35.797Z,97561.47
2023-03-23T17:41:37.738Z,97566.69
2023-03-23T17:46:39.623Z,97576.16
2023-03-23T17:51:41.613Z,97569.16
2023-03-23T17:56:44.809Z,97559.13
2023-03-23T18:01:49.023Z,97565.38
2023-03-23T18:06:50.846Z,97564.38
2023-03-23T18:11:53.224Z,97560.75
2023-03-23T18:16:55.461Z,97573.59
2023-03-23T18:21:57.467Z,97573.22
2023-03-23T18:27:00.463Z,97568.38
2023-03-23T18:32:02.527Z,97571.19
2023-03-23T18:37:04.482Z,97561.16
2023-03-23T18:42:06.613Z,97560.38
2023-03-23T18:47:08.361Z,97557.97
2023-03-23T18:52:10.190Z,97570.00
2023-03-23T18:57:12.897Z,97566.78
2023-03-23T19:02:18.607Z,97559.75
2023-03-23T19:07:20.605Z,97563.19
2023-03-23T19:12:23.337Z,97566.00
2023-03-23T19:17:26.068Z,97559.75
2023-03-23T19:22:28.310Z,97559.97
2023-03-23T19:27:31.358Z,97557.75
2023-03-23T19:32:34.349Z,97560.38
2023-03-23T19:37:36.264Z,97564.00
2023-03-23T19:42:40.258Z,97549.34
2023-03-23T19:47:42.315Z,97549.53
2023-03-23T19:52:44.764Z,97552.34
2023-03-23T19:57:46.985Z,97553.16
2023-03-23T20:02:48.827Z,97558.16
2023-03-23T20:07:51.966Z,97554.56
2023-03-23T20:12:54.194Z,97558.56
2023-03-23T20:17:58.065Z,97563.19
2023-03-23T20:23:02.020Z,97555.34
2023-03-23T20:28:04.205Z,97556.16
2023-03-23T20:33:06.114Z,97560.56
2023-03-23T20:38:08.059Z,97556.56
2023-03-23T20:43:10.849Z,97564.38
2023-03-23T20:48:12.845Z,97573.22
2023-03-23T20:53:14.645Z,97570.00
2023-03-23T20:58:16.895Z,97570.00
2023-03-23T21:03:19.271Z,97570.19
2023-03-23T21:08:22.325Z,97562.56
2023-03-23T21:13:24.225Z,97555.75
2023-03-23T21:18:26.448Z,97552.53
2023-03-23T21:23:29.728Z,97552.34
2023-03-23T21:28:32.376Z,97547.13
2023-03-23T21:33:35.631Z,97537.50
2023-03-23T21:38:38.586Z,97522.03
2023-03-23T21:43:41.073Z,97531.47
2023-03-23T21:48:42.796Z,97534.28
2023-03-23T21:53:44.548Z,97523.03
2023-03-23T21:58:46.672Z,97511.00
2023-03-23T22:03:48.994Z,97512.59
2023-03-23T22:08:50.835Z,97503.97
2023-03-23T22:13:54.170Z,97502.16
2023-03-23T22:19:00.013Z,97501.38
2023-03-23T22:24:02.726Z,97498.16
2023-03-23T22:29:05.907Z,97491.34
2023-03-23T22:34:07.810Z,97490.53
2023-03-23T22:39:10.225Z,97484.72
2023-03-23T22:44:18.372Z,97482.91
2023-03-23T22:49:20.593Z,97468.47
2023-03-23T22:54:22.740Z,97471.28
2023-03-23T22:59:24.710Z,97467.06
2023-03-23T23:04:26.942Z,97459.25
2023-03-23T23:09:28.883Z,97456.03
2023-03-23T23:14:31.101Z,97455.44
2023-03-23T23:19:33.008Z,97449.84
2023-03-23T23:24:35.191Z,97443.22
2023-03-23T23:29:37.135Z,97436.81
2023-03-23T23:34:39.176Z,97435.00
2023-03-23T23:39:42.607Z,97434.41
2023-03-23T23:44:47.634Z,97425.56
2023-03-23T23:49:49.533Z,97425.38
2023-03-23T23:54:52.698Z,97411.13
2023-03-23T23:59:54.569Z,97407.72
